PAEI METAR and TAF weather

Enter ICAO airport designator
Station Type Date Time Source
PAEI METAR 2022/06/27 16:56 UTC NOAA

PAEI 271656Z 00000KT 6SM FU SCT015 SCT250 18/10 A3013 RMK AO2A FU SCT015 SLP205 T01830099


Station Type Date Time Source
PAEI Decoded METAR 2022/06/27 16:56 UTC NOAA

Fairbanks, Eielson Air Force Base, AK, United States (PAEI) 64-39N 147-06W 167M
Jun 27, 2022 - 12:56 PM EDT / 2022.06.27 1656 UTC
Wind: Calm:0
Visibility: 6 mile(s):0
Sky conditions: partly cloudy
Weather: smoke
Temperature: 64.9 F (18.3 C)
Dew Point: 49.8 F (9.9 C)
Relative Humidity: 57%
Pressure (altimeter): 30.13 in. Hg (1020 hPa)
ob: PAEI 271656Z 00000KT 6SM FU SCT015 SCT250 18/10 A3013 RMK AO2A FU SCT015 SLP205 T01830099
cycle: 17

Station Type Date Time Source
PAEI TAF 2022/06/27 15:41 UTC NOAA

TAF
AMD PAEI 271510Z 2715/2820 VRB06KT 8000 FU SCT200 QNH3013INS
BECMG 2718/2719 VRB06KT 6000 FU SCT200 QNH3007INS
BECMG 2801/2802 VRB06KT 6000 FU SCT050 SCT200 QNH3008INS
TEMPO 2807/2813 2400 FU SCT050
BECMG 2818/2819 VRB06KT 9000 FU SCT050 QNH3009INS TX26/2801Z TN15/2715Z

Example: see airport list